Terminal Aerodrome Forecast
Issued by NWS Jackson, MS

Home | Current Version | Previous Version | Text Only | Print | Product List | Glossary On
Versions: 1 2 3 4 5 6 7 8 9 10 11 12 13 14 15 16 17
000
FTUS44 KJAN 170559
TAFGWO
TAF
KGWO 170559Z 1706/1806 18006KT P6SM SCT015
     FM170900 20006KT 6SM BR BKN015
     FM171300 21008KT 5SM BR BKN007
     FM171500 23009KT P6SM BKN025
     FM171700 23008KT P6SM BKN090
     FM171900 24007KT P6SM VCTS BKN050CB
     FM180000 20004KT P6SM SCT060 SCT100=

USA.gov is the U.S. government's official web portal to all federal, state and local government web resources and services.